Time;durP1;ratioP1;P1;durP2;ratioP2;P2;SDS_P1;SDS_P2;PMS_P1;PMS_P2;Temp;Humidity;BMP_temperature;BMP_pressure;BME280_temperature;BME280_humidity;BME280_pressure;Samples;Min_cycle;Max_cycle;Signal;HPM_P1;HPM_P2
2021/12/18 00:00:32;;;;;;;;;13.00;12.50;;;;;21.76;51.91;102595.41;109330;1280;18608;-74
2021/12/18 00:03:06;;;;;;;;;12.00;10.00;;;;;21.75;51.89;102593.46;109332;1280;20064;-75
2021/12/18 00:05:32;;;;;;;;;10.50;10.00;;;;;21.76;51.82;102591.39;109312;1280;18599;-75
2021/12/18 00:07:58;;;;;;;;;13.00;13.00;;;;;21.75;51.71;102582.34;109360;1279;22556;-75
2021/12/18 00:10:24;;;;;;;;;10.00;9.00;;;;;21.74;51.88;102582.31;109303;1280;21318;-75
2021/12/18 00:12:50;;;;;;;;;11.00;10.00;;;;;21.73;51.86;102588.02;109342;1280;20583;-75
2021/12/18 00:15:16;;;;;;;;;11.00;10.00;;;;;21.74;51.78;102591.05;109323;1280;18899;-75
2021/12/18 00:17:42;;;;;;;;;10.00;10.00;;;;;21.76;51.72;102590.48;109219;1280;111765;-74
2021/12/18 00:20:08;;;;;;;;;13.50;13.00;;;;;21.74;51.66;102585.33;109285;1280;18612;-77
2021/12/18 00:22:34;;;;;;;;;12.00;10.00;;;;;21.76;51.68;102587.55;109338;1280;20713;-74
2021/12/18 00:24:59;;;;;;;;;11.00;10.00;;;;;21.74;51.64;102581.05;109292;1280;21416;-74
2021/12/18 00:27:26;;;;;;;;;12.50;11.00;;;;;21.74;51.64;102583.20;109319;1280;18819;-74
2021/12/18 00:29:52;;;;;;;;;15.33;11.00;;;;;21.74;51.62;102582.80;109356;1280;18834;-74
2021/12/18 00:32:17;;;;;;;;;9.50;9.00;;;;;21.75;51.66;102582.13;109342;1280;23140;-74
2021/12/18 00:34:43;;;;;;;;;10.50;10.00;;;;;21.74;51.62;102586.30;109352;1280;18659;-74
2021/12/18 00:37:09;;;;;;;;;10.50;10.00;;;;;21.75;51.48;102591.13;109375;1280;18836;-74
2021/12/18 00:39:41;;;;;;;;;12.00;10.00;;;;;21.74;51.46;102596.13;109363;1280;19386;-74
2021/12/18 00:42:19;;;;;;;;;11.67;10.67;;;;;21.72;51.53;102597.39;109312;1280;20387;-74
2021/12/18 00:44:45;;;;;;;;;10.00;10.00;;;;;21.73;51.54;102600.21;109325;1280;18933;-73
2021/12/18 00:47:11;;;;;;;;;11.50;10.00;;;;;21.73;51.39;102599.15;109356;1280;19604;-75
2021/12/18 00:49:37;;;;;;;;;10.00;10.00;;;;;21.74;51.46;102604.01;109347;1279;18591;-74
2021/12/18 00:52:03;;;;;;;;;11.00;11.00;;;;;21.75;51.43;102602.95;109348;1280;19885;-75
2021/12/18 00:54:30;;;;;;;;;10.00;10.00;;;;;21.75;51.41;102602.08;109369;1280;19367;-75
2021/12/18 00:56:56;;;;;;;;;10.67;10.00;;;;;21.74;51.49;102603.91;109361;1280;20353;-75
2021/12/18 00:59:22;;;;;;;;;10.00;9.00;;;;;21.74;51.61;102606.68;109346;1280;18652;-75
2021/12/18 01:01:48;;;;;;;;;10.00;7.00;;;;;21.74;51.49;102609.77;109370;1280;20819;-75
2021/12/18 01:04:14;;;;;;;;;11.50;10.00;;;;;21.72;51.54;102610.88;109306;1280;18785;-75
2021/12/18 01:06:40;;;;;;;;;11.50;9.50;;;;;21.71;51.63;102611.52;109382;1280;20255;-75
2021/12/18 01:09:06;;;;;;;;;7.50;7.00;;;;;21.71;51.55;102608.02;109319;1280;19477;-75
2021/12/18 01:11:34;;;;;;;;;10.00;9.50;;;;;21.72;51.34;102607.99;109380;1279;19275;-75
2021/12/18 01:16:49;;;;;;;;;9.00;9.00;;;;;21.71;51.40;102605.50;109220;1279;19581;-73
2021/12/18 01:24:43;;;;;;;;;7.67;7.00;;;;;21.71;51.55;102599.88;109284;1280;19802;-74
2021/12/18 01:27:09;;;;;;;;;8.67;7.00;;;;;21.71;51.44;102603.91;109344;1280;18801;-75
2021/12/18 01:29:35;;;;;;;;;10.00;9.00;;;;;21.71;51.53;102601.85;109333;1280;23137;-75
2021/12/18 01:32:00;;;;;;;;;7.00;7.00;;;;;21.69;51.14;102591.64;109309;1280;20105;-75
2021/12/18 01:34:26;;;;;;;;;10.50;9.50;;;;;21.70;51.23;102598.85;109429;1280;19703;-75
2021/12/18 01:36:52;;;;;;;;;9.00;9.00;;;;;21.71;51.33;102595.52;109324;1280;18618;-75
2021/12/18 01:39:18;;;;;;;;;10.00;7.00;;;;;21.70;51.39;102591.00;109317;1279;21857;-77
2021/12/18 01:42:00;;;;;;;;;9.00;8.00;;;;;21.69;51.40;102588.95;109349;1280;23123;-76
2021/12/18 01:44:56;;;;;;;;;9.67;8.00;;;;;21.69;51.45;102587.15;109287;1279;22727;-74
2021/12/18 01:52:53;;;;;;;;;9.33;8.67;;;;;21.70;51.38;102589.27;109299;1280;23023;-75
2021/12/18 01:55:19;;;;;;;;;6.67;6.00;;;;;21.71;51.20;102586.41;109308;1280;19564;-75
2021/12/18 01:57:45;;;;;;;;;9.00;9.00;;;;;21.70;51.26;102588.14;109318;1280;18922;-75
2021/12/18 02:00:11;;;;;;;;;9.50;8.00;;;;;21.70;51.37;102590.68;109222;1279;18527;-77
2021/12/18 02:02:37;;;;;;;;;6.50;6.00;;;;;21.69;51.18;102584.95;109337;1280;19925;-74
2021/12/18 02:05:03;;;;;;;;;10.00;9.00;;;;;21.69;51.22;102590.77;109331;1280;20478;-75
2021/12/18 02:07:29;;;;;;;;;8.00;8.00;;;;;21.71;51.33;102590.26;109394;1280;18804;-74
2021/12/18 02:10:02;;;;;;;;;9.00;7.50;;;;;21.71;51.20;102590.80;109348;1280;19344;-75
2021/12/18 02:12:36;;;;;;;;;7.67;7.00;;;;;21.70;51.24;102594.13;109325;1280;21848;-74
2021/12/18 02:20:39;;;;;;;;;6.00;6.00;;;;;21.68;51.34;102597.92;109340;1280;18845;-74
2021/12/18 02:23:05;;;;;;;;;6.00;6.00;;;;;21.64;51.25;102591.35;109287;1280;20713;-76
2021/12/18 02:25:33;;;;;;;;;8.50;7.50;;;;;21.69;51.14;102592.58;109360;1280;21908;-76
2021/12/18 02:27:59;;;;;;;;;6.00;6.00;;;;;21.67;51.31;102588.38;109298;1280;19858;-74
2021/12/18 02:30:25;;;;;;;;;6.50;6.50;;;;;21.69;51.18;102580.05;109338;1280;18754;-76
2021/12/18 02:32:51;;;;;;;;;10.50;7.50;;;;;21.69;51.19;102585.67;109322;1279;21261;-76
2021/12/18 02:35:17;;;;;;;;;6.50;6.00;;;;;21.67;51.21;102577.52;109306;1279;18450;-76
2021/12/18 02:37:44;;;;;;;;;6.50;6.50;;;;;21.66;51.17;102573.92;109355;1279;18599;-76
2021/12/18 02:42:54;;;;;;;;;6.67;6.67;;;;;21.67;51.19;102573.52;109350;1280;18628;-76
2021/12/18 02:45:21;;;;;;;;;5.50;5.00;;;;;21.68;51.20;102573.19;109344;1280;18758;-76
2021/12/18 02:47:48;;;;;;;;;6.00;6.00;;;;;21.66;51.31;102565.54;109317;1280;21789;-74
2021/12/18 02:50:13;;;;;;;;;6.00;6.00;;;;;21.66;51.24;102559.71;109342;1280;19967;-74
2021/12/18 02:52:39;;;;;;;;;9.00;7.00;;;;;21.65;51.09;102551.09;109366;1280;19340;-74
2021/12/18 02:55:05;;;;;;;;;8.50;6.00;;;;;21.67;51.20;102554.94;109300;1280;19339;-73
2021/12/18 02:57:31;;;;;;;;;6.00;5.00;;;;;21.67;51.15;102556.38;109358;1280;18289;-76
2021/12/18 02:59:59;;;;;;;;;7.00;6.00;;;;;21.66;51.03;102547.87;109342;1280;18559;-76
2021/12/18 03:02:26;;;;;;;;;5.00;5.00;;;;;21.69;51.12;102552.76;109308;1279;19818;-75
2021/12/18 03:04:57;;;;;;;;;6.00;6.00;;;;;21.66;51.10;102544.29;109343;1280;23276;-74
2021/12/18 03:07:25;;;;;;;;;6.00;5.00;;;;;21.66;51.06;102531.69;109338;1280;21898;-74
2021/12/18 03:23:35;;;;;;;;;6.67;6.00;;;;;21.66;50.84;102530.27;109284;1280;18785;-74
2021/12/18 03:26:01;;;;;;;;;7.33;6.00;;;;;21.66;50.73;102536.81;109322;1279;21734;-75
2021/12/18 03:28:27;;;;;;;;;9.33;6.67;;;;;21.64;50.74;102538.95;109351;1279;18657;-75
2021/12/18 03:30:55;;;;;;;;;6.00;6.00;;;;;21.64;50.88;102531.73;109300;1280;19845;-74
2021/12/18 03:33:21;;;;;;;;;7.33;7.00;;;;;21.65;50.81;102532.58;109320;1280;19527;-75
2021/12/18 03:35:47;;;;;;;;;6.00;6.00;;;;;21.65;51.03;102529.30;109298;1280;19090;-75
2021/12/18 03:38:12;;;;;;;;;5.00;5.00;;;;;21.65;50.77;102535.44;109359;1280;18853;-75
2021/12/18 03:40:38;;;;;;;;;6.50;6.00;;;;;21.67;50.92;102543.11;109312;1280;24049;-75
2021/12/18 03:43:04;;;;;;;;;5.00;5.00;;;;;21.65;50.93;102538.22;109366;1280;18838;-75
2021/12/18 03:45:30;;;;;;;;;5.00;5.00;;;;;21.64;50.80;102544.12;109343;1280;23351;-75
2021/12/18 03:47:56;;;;;;;;;9.00;7.00;;;;;21.64;50.86;102551.19;109323;1280;19342;-75
2021/12/18 03:50:22;;;;;;;;;5.00;5.00;;;;;21.65;50.79;102551.35;109319;1280;18884;-74
2021/12/18 03:52:48;;;;;;;;;6.00;5.50;;;;;21.65;50.83;102550.17;109338;1280;18976;-73
2021/12/18 03:55:14;;;;;;;;;5.50;5.00;;;;;21.65;50.73;102544.02;109315;1280;19463;-74
2021/12/18 03:57:40;;;;;;;;;6.00;6.00;;;;;21.63;50.90;102538.72;109315;1279;19012;-75
2021/12/18 04:00:06;;;;;;;;;7.00;5.00;;;;;21.64;50.77;102541.93;109350;1280;19088;-75
2021/12/18 04:02:32;;;;;;;;;5.00;5.00;;;;;21.63;50.77;102551.42;109335;1280;19348;-74
2021/12/18 04:04:58;;;;;;;;;6.00;6.00;;;;;21.64;50.76;102545.57;109339;1280;18383;-75
2021/12/18 04:07:24;;;;;;;;;5.00;5.00;;;;;21.64;50.63;102555.22;109323;1280;18597;-74
2021/12/18 04:09:50;;;;;;;;;5.00;5.00;;;;;21.65;50.67;102553.47;109335;1280;22563;-75
2021/12/18 04:12:16;;;;;;;;;6.50;6.50;;;;;21.63;50.88;102552.52;109330;1280;18518;-74
2021/12/18 04:14:41;;;;;;;;;5.00;5.00;;;;;21.65;50.70;102549.68;109322;1279;19309;-74
2021/12/18 04:17:07;;;;;;;;;6.00;5.00;;;;;21.65;50.81;102544.19;109328;1280;19361;-74
2021/12/18 04:19:33;;;;;;;;;5.50;5.50;;;;;21.63;50.56;102527.23;109311;1280;24020;-74
2021/12/18 04:21:59;;;;;;;;;6.00;5.00;;;;;21.63;50.59;102526.13;109303;1279;22366;-74
2021/12/18 04:24:25;;;;;;;;;6.00;6.00;;;;;21.63;50.69;102529.78;109317;1280;20174;-74
2021/12/18 04:26:51;;;;;;;;;5.00;5.00;;;;;21.63;50.71;102525.48;109318;1280;18782;-74
2021/12/18 04:29:17;;;;;;;;;7.00;6.00;;;;;21.64;50.49;102524.06;109349;1280;18560;-74
2021/12/18 04:31:43;;;;;;;;;6.00;5.00;;;;;21.63;50.54;102513.58;109328;1280;19353;-74
2021/12/18 04:34:09;;;;;;;;;5.50;5.50;;;;;21.64;50.61;102510.23;109348;1279;18495;-75
2021/12/18 04:36:35;;;;;;;;;5.00;5.00;;;;;21.64;50.71;102504.80;109450;1280;18685;-75
2021/12/18 04:39:01;;;;;;;;;6.00;5.00;;;;;21.62;50.52;102500.03;109347;1280;20931;-74
2021/12/18 04:41:37;;;;;;;;;6.00;6.00;;;;;21.63;50.54;102496.12;109305;1280;23112;-76
2021/12/18 04:44:03;;;;;;;;;4.67;4.00;;;;;21.63;50.59;102491.64;109360;1280;21164;-76
2021/12/18 04:46:29;;;;;;;;;5.00;5.00;;;;;21.63;50.59;102490.31;109398;1280;19410;-76
2021/12/18 04:48:55;;;;;;;;;5.50;5.50;;;;;21.62;50.58;102486.61;109343;1280;18425;-76
2021/12/18 04:51:21;;;;;;;;;7.00;6.00;;;;;21.64;50.56;102495.92;109355;1279;19352;-76
2021/12/18 04:53:47;;;;;;;;;6.00;6.00;;;;;21.62;50.56;102497.70;109321;1280;19900;-76
2021/12/18 04:56:13;;;;;;;;;5.00;5.00;;;;;21.64;50.43;102496.30;109367;1280;18463;-75
2021/12/18 04:58:39;;;;;;;;;6.00;5.00;;;;;21.60;50.43;102491.72;109388;1280;19225;-76
2021/12/18 05:01:05;;;;;;;;;5.00;5.00;;;;;21.62;50.49;102502.95;109367;1279;19298;-76
2021/12/18 05:03:31;;;;;;;;;5.50;5.00;;;;;21.62;50.49;102500.80;109261;1280;22002;-75
2021/12/18 05:05:59;;;;;;;;;5.00;5.00;;;;;21.62;50.45;102502.08;109311;1280;20444;-76
2021/12/18 05:08:25;;;;;;;;;5.00;4.67;;;;;21.63;50.28;102502.31;109368;1280;20322;-76
2021/12/18 05:10:51;;;;;;;;;5.00;5.00;;;;;21.63;50.59;102502.73;109364;1280;18458;-75
2021/12/18 05:13:17;;;;;;;;;5.50;5.50;;;;;21.62;50.54;102489.89;109318;1280;18846;-76
2021/12/18 05:15:43;;;;;;;;;5.00;5.00;;;;;21.62;50.57;102492.41;109310;1280;19401;-76
2021/12/18 05:18:10;;;;;;;;;5.00;5.00;;;;;21.62;50.35;102495.14;109365;1280;18721;-77
2021/12/18 05:20:36;;;;;;;;;3.00;3.00;;;;;21.62;50.56;102491.49;109341;1280;18521;-75
2021/12/18 05:23:02;;;;;;;;;5.00;5.00;;;;;21.62;50.36;102488.59;109330;1279;23199;-74
2021/12/18 05:25:27;;;;;;;;;5.00;5.00;;;;;21.62;50.45;102479.89;109351;1280;20618;-75
2021/12/18 05:27:54;;;;;;;;;5.00;5.00;;;;;21.62;50.35;102484.40;109343;1280;19550;-74
2021/12/18 05:30:19;;;;;;;;;6.00;5.00;;;;;21.63;50.39;102485.80;109356;1280;19865;-74
2021/12/18 05:32:45;;;;;;;;;5.00;4.50;;;;;21.62;50.41;102481.84;109365;1280;18537;-74
2021/12/18 05:35:13;;;;;;;;;3.00;3.00;;;;;21.62;50.42;102480.58;109324;1280;19105;-75
2021/12/18 05:37:49;;;;;;;;;5.00;5.00;;;;;21.62;50.26;102472.19;109397;1280;22412;-75
2021/12/18 05:40:15;;;;;;;;;5.00;5.00;;;;;21.60;50.34;102478.72;109359;1280;20149;-75
2021/12/18 05:42:41;;;;;;;;;6.00;5.00;;;;;21.62;50.25;102483.54;109320;1280;20261;-76
2021/12/18 05:45:07;;;;;;;;;3.50;3.50;;;;;21.63;50.37;102483.05;109312;1280;19427;-74
2021/12/18 05:47:33;;;;;;;;;5.00;5.00;;;;;21.63;50.35;102484.85;109355;1280;18682;-76
2021/12/18 05:49:59;;;;;;;;;5.50;5.00;;;;;21.64;50.26;102476.79;109360;1279;19735;-75
2021/12/18 05:52:25;;;;;;;;;5.00;3.00;;;;;21.63;50.36;102469.58;109374;1280;19369;-75
2021/12/18 05:54:51;;;;;;;;;3.67;3.33;;;;;21.62;50.27;102469.66;109355;1280;19066;-74
2021/12/18 05:57:17;;;;;;;;;6.00;5.00;;;;;21.62;50.37;102469.83;109381;1280;19250;-74
2021/12/18 05:59:43;;;;;;;;;4.50;3.50;;;;;21.61;50.33;102459.27;109311;1280;19952;-74
2021/12/18 06:02:09;;;;;;;;;5.00;5.00;;;;;21.61;50.33;102459.18;109307;1280;23304;-74
2021/12/18 06:04:35;;;;;;;;;5.00;5.00;;;;;21.60;50.38;102462.58;109298;1280;23012;-74
2021/12/18 06:07:05;;;;;;;;;3.50;3.50;;;;;21.61;50.31;102465.52;109316;1280;19678;-74
2021/12/18 06:09:31;;;;;;;;;6.00;5.00;;;;;21.59;50.21;102460.97;109314;1280;21833;-74
2021/12/18 06:11:57;;;;;;;;;5.00;5.00;;;;;21.60;50.32;102461.30;109310;1280;18771;-74
2021/12/18 06:14:23;;;;;;;;;3.00;3.00;;;;;21.62;50.20;102470.95;109306;1280;23135;-75
2021/12/18 06:16:49;;;;;;;;;3.00;3.00;;;;;21.62;50.39;102476.23;109326;1280;20689;-74
2021/12/18 06:19:15;;;;;;;;;6.00;5.00;;;;;21.62;50.38;102472.08;109321;1280;20717;-75
2021/12/18 06:21:42;;;;;;;;;5.00;5.00;;;;;21.63;50.22;102467.55;109312;1280;23593;-75
2021/12/18 06:24:08;;;;;;;;;6.00;5.00;;;;;21.66;50.53;102472.98;109366;1280;19118;-78
2021/12/18 06:26:34;;;;;;;;;5.00;4.50;;;;;21.70;50.63;102470.97;109367;1280;22546;-77
2021/12/18 06:29:00;;;;;;;;;7.00;7.00;;;;;21.76;50.78;102472.59;109363;1280;23170;-74
2021/12/18 06:31:26;;;;;;;;;7.50;6.00;;;;;21.77;51.22;102474.44;109366;1280;18384;-78
2021/12/18 06:33:51;;;;;;;;;7.00;6.00;;;;;21.82;51.25;102473.84;109313;1280;18828;-77
2021/12/18 06:36:17;;;;;;;;;7.50;6.00;;;;;21.81;51.66;102471.33;109328;1280;19293;-77
2021/12/18 06:38:43;;;;;;;;;6.00;5.00;;;;;21.79;51.81;102473.77;109290;1280;18697;-73
2021/12/18 06:41:09;;;;;;;;;9.00;6.00;;;;;21.75;51.95;102468.08;109206;1279;18583;-77
2021/12/18 06:43:35;;;;;;;;;6.00;5.50;;;;;21.76;52.06;102460.37;109302;1280;22111;-77
2021/12/18 06:46:01;;;;;;;;;5.50;5.50;;;;;21.76;52.36;102456.33;109312;1280;18751;-77
2021/12/18 06:48:27;;;;;;;;;7.00;6.00;;;;;21.79;52.89;102453.14;109323;1280;18843;-77
2021/12/18 06:50:53;;;;;;;;;6.50;6.00;;;;;21.80;52.47;102451.23;109302;1280;19762;-77
2021/12/18 06:53:19;;;;;;;;;9.00;8.50;;;;;21.84;52.54;102449.27;109323;1279;18842;-77
2021/12/18 06:55:45;;;;;;;;;7.00;6.00;;;;;21.82;52.52;102449.95;109340;1280;18723;-77
2021/12/18 06:58:11;;;;;;;;;6.50;6.00;;;;;21.80;52.34;102447.96;109339;1280;19865;-76
2021/12/18 07:00:37;;;;;;;;;6.00;6.00;;;;;21.79;52.57;102443.58;109300;1280;18383;-78
2021/12/18 07:03:03;;;;;;;;;6.00;6.00;;;;;21.79;52.73;102438.29;109330;1280;22114;-79
2021/12/18 07:05:29;;;;;;;;;6.50;6.00;;;;;21.77;52.92;102425.00;109315;1280;20038;-79
2021/12/18 07:07:56;;;;;;;;;9.00;6.00;;;;;21.82;52.81;102437.94;109265;1279;18392;-79
2021/12/18 07:10:22;;;;;;;;;7.00;7.00;;;;;21.81;52.95;102429.89;109343;1280;19475;-81
2021/12/18 07:12:48;;;;;;;;;9.00;7.00;;;;;21.82;52.72;102426.86;109311;1280;19371;-80
2021/12/18 07:15:14;;;;;;;;;6.50;6.00;;;;;21.83;52.85;102426.80;109334;1280;20997;-78
2021/12/18 07:17:40;;;;;;;;;7.50;7.00;;;;;21.84;52.98;102417.02;109313;1280;18588;-78
2021/12/18 07:20:06;;;;;;;;;5.00;5.00;;;;;21.84;52.89;102411.22;109369;1280;19363;-80
2021/12/18 07:22:32;;;;;;;;;7.00;6.00;;;;;21.82;53.46;102403.73;109339;1280;18760;-78
2021/12/18 07:24:58;;;;;;;;;7.00;7.00;;;;;21.85;53.34;102401.96;109326;1280;22415;-79
2021/12/18 07:27:23;;;;;;;;;6.00;6.00;;;;;21.85;53.38;102394.50;109333;1279;19449;-77
2021/12/18 07:29:49;;;;;;;;;12.50;10.50;;;;;21.86;53.54;102387.34;109395;1280;19025;-78
2021/12/18 07:32:15;;;;;;;;;9.50;9.50;;;;;21.85;53.79;102382.52;109692;1279;18646;-81
2021/12/18 07:34:41;;;;;;;;;11.00;11.00;;;;;21.84;53.76;102380.10;109234;1280;19523;-76
2021/12/18 07:37:07;;;;;;;;;12.00;12.00;;;;;21.71;52.59;102375.84;109304;1280;20344;-77
2021/12/18 07:39:33;;;;;;;;;13.00;13.00;;;;;21.68;52.30;102370.36;109295;1279;19307;-78
2021/12/18 07:41:59;;;;;;;;;10.00;10.00;;;;;21.72;52.53;102365.73;109246;1280;19322;-77
2021/12/18 07:44:25;;;;;;;;;14.00;13.50;;;;;21.76;52.60;102368.66;109325;1280;19142;-77
2021/12/18 07:46:51;;;;;;;;;11.00;11.00;;;;;21.77;52.59;102368.54;109394;1280;19136;-76
2021/12/18 07:49:17;;;;;;;;;15.00;13.00;;;;;21.78;52.50;102371.58;109343;1280;19380;-75
2021/12/18 07:51:43;;;;;;;;;13.00;11.50;;;;;21.79;52.23;102374.02;109341;1280;18668;-76
2021/12/18 07:54:09;;;;;;;;;11.50;11.00;;;;;21.79;52.13;102372.33;109362;1280;18556;-76
2021/12/18 07:56:35;;;;;;;;;14.50;13.00;;;;;21.80;52.47;102365.90;109384;1280;19420;-76
2021/12/18 07:59:01;;;;;;;;;15.00;11.00;;;;;21.81;52.17;102369.64;109322;1280;18761;-76
2021/12/18 08:01:27;;;;;;;;;13.00;13.00;;;;;21.84;52.24;102367.20;109308;1280;20462;-76
2021/12/18 08:03:53;;;;;;;;;11.50;11.50;;;;;21.86;52.35;102364.45;109334;1280;19396;-76
2021/12/18 08:06:19;;;;;;;;;13.50;13.00;;;;;21.85;52.53;102367.20;109307;1280;18906;-77
2021/12/18 08:08:45;;;;;;;;;14.00;13.00;;;;;21.80;52.15;102373.55;109343;1280;20231;-75
2021/12/18 08:11:11;;;;;;;;;14.00;13.00;;;;;21.79;52.25;102374.95;109363;1280;19471;-75
2021/12/18 08:13:37;;;;;;;;;14.50;14.50;;;;;21.78;52.44;102370.69;109396;1280;18644;-75
2021/12/18 08:16:03;;;;;;;;;12.50;11.00;;;;;21.80;52.14;102369.17;109335;1280;18748;-76
2021/12/18 08:18:29;;;;;;;;;10.00;10.00;;;;;21.82;52.22;102370.61;109319;1270;134555;-78
2021/12/18 08:20:55;;;;;;;;;18.00;14.50;;;;;21.84;52.02;102357.73;109374;1280;19210;-75
2021/12/18 08:23:21;;;;;;;;;13.00;13.00;;;;;21.83;52.05;102354.48;109354;1280;20226;-76
2021/12/18 08:25:48;;;;;;;;;16.00;14.00;;;;;21.84;52.24;102359.73;109314;1280;19531;-76
2021/12/18 08:28:14;;;;;;;;;11.33;10.67;;;;;21.84;52.18;102364.81;109358;1280;22428;-76
2021/12/18 08:30:40;;;;;;;;;14.00;11.00;;;;;21.83;52.25;102362.73;109295;1280;18644;-76
2021/12/18 08:33:06;;;;;;;;;14.00;13.00;;;;;21.81;52.02;102360.17;109305;1280;19946;-79
2021/12/18 08:35:32;;;;;;;;;13.33;13.00;;;;;21.82;52.27;102349.70;109362;1280;18888;-77
2021/12/18 08:37:58;;;;;;;;;13.50;13.50;;;;;21.82;52.49;102341.11;109279;1280;19282;-77
2021/12/18 08:40:24;;;;;;;;;14.00;12.00;;;;;21.87;52.47;102341.79;109331;1280;20226;-77
2021/12/18 08:42:49;;;;;;;;;14.00;13.00;;;;;21.92;52.35;102346.56;109350;1280;22449;-77
2021/12/18 08:45:15;;;;;;;;;71.67;53.00;;;;;21.98;52.34;102340.95;109311;1280;22559;-76
2021/12/18 08:47:41;;;;;;;;;96.00;68.67;;;;;22.03;52.11;102347.29;109294;1280;22313;-76
2021/12/18 08:50:09;;;;;;;;;102.00;75.00;;;;;22.05;51.98;102343.66;109350;1280;18601;-76
2021/12/18 08:52:35;;;;;;;;;156.50;114.25;;;;;22.08;51.75;102341.77;109290;1280;19568;-75
2021/12/18 08:55:01;;;;;;;;;218.00;158.25;;;;;22.04;51.40;102343.81;109326;1280;20102;-77
2021/12/18 08:57:27;;;;;;;;;230.25;177.50;;;;;21.95;51.65;102348.83;109359;1280;19150;-75
2021/12/18 08:59:52;;;;;;;;;187.25;149.50;;;;;21.91;51.79;102346.27;109326;1279;18840;-75
2021/12/18 09:02:18;;;;;;;;;186.00;139.67;;;;;21.92;51.66;102345.33;109305;1279;23122;-77
2021/12/18 09:04:44;;;;;;;;;143.00;109.33;;;;;21.98;51.75;102345.48;109376;1280;23547;-76
2021/12/18 09:07:10;;;;;;;;;125.67;93.67;;;;;22.04;51.56;102343.26;109249;1280;21013;-78
2021/12/18 09:09:36;;;;;;;;;115.67;92.00;;;;;22.05;51.43;102346.08;109221;1280;20858;-81
2021/12/18 09:12:02;;;;;;;;;111.67;90.67;;;;;22.03;51.16;102346.65;109509;1280;18959;-82
2021/12/18 09:14:28;;;;;;;;;103.67;78.00;;;;;22.01;51.36;102336.27;109361;1280;20317;-81
2021/12/18 09:16:54;;;;;;;;;107.33;84.00;;;;;22.05;51.45;102341.88;109229;1280;19492;-83
2021/12/18 09:19:20;;;;;;;;;99.00;75.33;;;;;22.06;51.45;102336.51;109147;1280;20117;-83
2021/12/18 09:21:46;;;;;;;;;97.67;70.67;;;;;22.05;51.24;102333.11;109252;1280;18759;-83
2021/12/18 09:24:12;;;;;;;;;94.33;68.67;;;;;22.06;51.52;102327.94;109313;1280;19402;-81
2021/12/18 09:26:38;;;;;;;;;93.33;67.00;;;;;22.04;51.73;102319.34;109772;1280;20866;-83
2021/12/18 09:29:04;;;;;;;;;89.67;64.67;;;;;22.07;51.86;102315.44;109473;1280;22211;-82
2021/12/18 09:31:30;;;;;;;;;91.67;65.00;;;;;22.14;51.51;102313.03;109317;1280;19951;-79
2021/12/18 09:33:56;;;;;;;;;84.33;63.00;;;;;22.13;51.85;102309.08;109300;1279;19201;-78
2021/12/18 09:36:22;;;;;;;;;80.67;60.00;;;;;22.06;52.16;102307.86;109317;1280;18705;-81
2021/12/18 09:38:48;;;;;;;;;85.67;61.00;;;;;22.05;52.49;102295.66;109299;1280;20022;-81
2021/12/18 09:41:14;;;;;;;;;77.67;59.33;;;;;22.09;52.72;102281.95;109347;1280;18812;-80
2021/12/18 09:43:39;;;;;;;;;72.50;56.50;;;;;22.08;52.64;102277.09;109367;1280;19071;-81
2021/12/18 09:46:05;;;;;;;;;76.00;57.00;;;;;22.09;52.55;102273.16;109254;1280;19357;-81
2021/12/18 09:48:31;;;;;;;;;75.00;56.33;;;;;22.07;52.83;102265.02;109300;1280;18568;-75
2021/12/18 09:50:58;;;;;;;;;75.50;54.50;;;;;22.08;52.85;102268.95;109349;1280;18657;-80
2021/12/18 09:53:24;;;;;;;;;69.00;50.67;;;;;22.09;52.76;102267.55;109333;1280;22969;-77
2021/12/18 09:55:50;;;;;;;;;75.33;57.67;;;;;22.07;52.69;102261.73;109308;1280;22964;-81
2021/12/18 09:58:16;;;;;;;;;66.00;50.00;;;;;22.07;52.68;102273.04;109313;1280;20167;-80
2021/12/18 10:00:42;;;;;;;;;66.67;52.00;;;;;22.01;52.32;102263.08;109306;1280;19833;-81
2021/12/18 10:03:08;;;;;;;;;62.67;46.67;;;;;21.96;52.60;102248.83;109295;1280;19311;-81
2021/12/18 10:05:34;;;;;;;;;61.67;49.00;;;;;21.98;52.16;102246.48;109218;1280;21324;-81
2021/12/18 10:08:00;;;;;;;;;59.00;44.00;;;;;21.96;52.28;102236.42;109168;1280;19373;-81
2021/12/18 10:10:26;;;;;;;;;62.00;48.00;;;;;21.96;52.03;102233.15;109128;1280;18619;-81
2021/12/18 10:12:52;;;;;;;;;54.33;44.67;;;;;21.98;52.06;102229.89;109294;1280;19177;-81
2021/12/18 10:15:18;;;;;;;;;60.00;42.00;;;;;21.97;52.21;102220.92;109304;1280;20831;-80
2021/12/18 10:17:44;;;;;;;;;58.67;43.33;;;;;21.92;52.26;102223.34;109318;1280;20144;-80
2021/12/18 10:20:10;;;;;;;;;57.33;43.00;;;;;21.91;52.35;102231.09;109325;1280;18584;-78
2021/12/18 10:22:36;;;;;;;;;57.00;44.33;;;;;21.93;52.18;102228.58;109345;1280;19352;-80
2021/12/18 10:25:02;;;;;;;;;48.50;42.00;;;;;21.96;51.88;102212.46;109352;1279;20690;-81
2021/12/18 10:27:27;;;;;;;;;56.00;43.00;;;;;21.92;52.15;102205.91;109312;1279;19036;-82
2021/12/18 10:29:53;;;;;;;;;50.50;40.50;;;;;21.90;52.06;102205.23;109320;1280;19383;-81
2021/12/18 10:32:19;;;;;;;;;44.00;37.67;;;;;21.89;51.94;102202.91;109346;1279;18872;-81
2021/12/18 10:34:45;;;;;;;;;48.00;40.00;;;;;21.89;52.04;102201.80;109288;1280;19282;-77
2021/12/18 10:37:11;;;;;;;;;48.00;36.00;;;;;21.91;51.85;102201.46;109319;1280;22538;-80
2021/12/18 10:39:37;;;;;;;;;39.00;35.00;;;;;21.91;51.81;102213.41;109315;1280;23322;-81
2021/12/18 10:42:03;;;;;;;;;51.00;42.00;;;;;21.92;51.81;102224.96;109315;1280;18677;-79
2021/12/18 10:44:29;;;;;;;;;44.50;37.50;;;;;21.93;51.66;102225.11;109359;1280;20651;-78
2021/12/18 10:46:55;;;;;;;;;43.00;36.00;;;;;21.90;51.82;102214.60;109325;1279;18592;-78
2021/12/18 10:49:22;;;;;;;;;43.50;38.00;;;;;21.92;51.54;102209.73;109313;1279;19294;-79
2021/12/18 10:51:50;;;;;;;;;46.50;37.00;;;;;21.92;51.29;102216.46;109342;1279;21765;-78
2021/12/18 10:54:16;;;;;;;;;39.33;34.67;;;;;21.92;51.61;102210.59;109389;1280;20457;-77
2021/12/18 10:56:41;;;;;;;;;46.00;38.00;;;;;21.90;51.68;102204.05;109351;1280;23761;-78
2021/12/18 10:59:07;;;;;;;;;37.50;32.00;;;;;21.87;51.17;102195.27;109321;1278;20185;-80
2021/12/18 11:01:33;;;;;;;;;37.50;29.00;;;;;21.85;50.89;102183.84;109249;1279;18792;-80
2021/12/18 11:03:59;;;;;;;;;37.00;32.00;;;;;21.84;51.31;102184.28;109371;1280;18663;-80
2021/12/18 11:06:25;;;;;;;;;43.00;34.00;;;;;21.84;51.25;102189.53;109366;1280;19887;-80
2021/12/18 11:08:52;;;;;;;;;34.00;31.00;;;;;21.85;51.31;102182.00;109354;1279;18774;-76
2021/12/18 11:14:02;;;;;;;;;32.33;28.67;;;;;21.84;51.34;102184.05;109330;1280;19756;-78
2021/12/18 11:16:28;;;;;;;;;30.00;27.00;;;;;21.82;51.33;102173.16;109312;1280;18687;-79
2021/12/18 11:18:54;;;;;;;;;34.33;30.67;;;;;21.83;51.12;102167.82;109304;1280;19006;-78
2021/12/18 11:21:20;;;;;;;;;35.50;30.00;;;;;21.81;51.07;102161.23;109326;1280;24298;-78
2021/12/18 11:23:46;;;;;;;;;39.00;28.00;;;;;21.81;51.12;102169.07;109277;1280;19270;-79
2021/12/18 11:26:12;;;;;;;;;30.00;26.00;;;;;21.81;50.92;102168.56;109248;1280;18687;-78
2021/12/18 11:28:38;;;;;;;;;32.50;26.00;;;;;21.80;50.92;102175.01;109345;1279;19362;-78
2021/12/18 11:31:04;;;;;;;;;30.00;26.00;;;;;21.80;51.13;102168.52;109345;1280;22007;-79
2021/12/18 11:33:30;;;;;;;;;34.00;29.00;;;;;21.80;51.15;102170.49;109360;1279;18671;-79
2021/12/18 11:35:56;;;;;;;;;30.50;25.00;;;;;21.79;50.83;102156.38;109325;1280;19428;-78
2021/12/18 11:38:22;;;;;;;;;33.50;25.00;;;;;21.80;50.86;102150.67;109334;1279;18654;-78
2021/12/18 11:40:49;;;;;;;;;27.00;25.00;;;;;21.80;50.83;102149.69;109352;1280;19004;-78
2021/12/18 11:43:15;;;;;;;;;27.67;22.33;;;;;21.76;50.75;102147.22;109357;1280;20194;-78